Crumley Xing, Indiana
Current Conditions -  °F | °C
As of 3:53 AM on Friday 28 Nov 2014 (Local Time) from KMIE Reporting Station
Overcast Overcast  
Wind Chill: 24°   Ceiling: 2500
Heat Index: 24°   Visibility: 10mi
Dew Point: 16°   Wind: 0mph
Humidity: 71%   Direction: NA
Pressure: 30.35"   Gusts: NA
Location:  40.3769°N, 85.2018°W
Report Text: KMIE 280853Z AUTO 00000KT 10SM OVC025 M04/M09 A3035 RMK AO2 SLP285 T10441089 58003
Loading
Personal Weather Stations






























Interactive Weather Map New forecast layout! Learn more

10-Day Weather Forecast

Advertisements
Track Severe Weather on mobile